Flight Track Log - Related Links

Times and Time Zones

All times are in EDT time to prevent confusion due to time zone crossing. See the SWA1202 flight status page for this flight to view local times or setup timezone preferences in your user account.

Time Position Orientation Groundspeed Altitude Reporting Facility
EDT Latitude Longitude Course Direction KTS MPH feet Rate Location/Type
Mon 03:50:40 PM 35.0131 -106.7219 266° West 217 250 8,600  Level Albuquerque Center
Mon 03:51:04 PM 35.0214 -106.7444 294° West 214 246 9,400 2,442 Climbing Albuquerque Center
Mon 03:52:06 PM 35.0439 -106.8236 289° West 237 273 12,100 2,323 Climbing Albuquerque Center
Mon 03:53:08 PM 35.0408 -106.9167 268° West 257 296 14,200 1,622 Climbing Albuquerque Center
Mon 03:55:11 PM 35.0353 -107.1439 268° West 341 392 17,100 1,652 Climbing Albuquerque Center
Mon 03:57:15 PM 35.0281 -107.3944 268° West 369 425 21,000 1,827 Climbing Albuquerque Center
Mon 03:59:00 PM 34.9833 -107.5994 270° West  Level FlightAware Approximate
Mon 04:01:22 PM 35.0122 -107.9428 262° West 387 445 28,400  Level Albuquerque Center
Mon 04:03:26 PM 35.0031 -108.1989 268° West 367 422 31,000 1,200 Climbing Albuquerque Center
Mon 04:05:00 PM 34.9328 -108.3553 262° West  Level FlightAware Approximate
Mon 04:06:00 PM 34.9244 -108.4314 262° West  Level FlightAware Approximate
Mon 04:06:32 PM 34.9903 -108.5678 264° West 355 409 34,600  Level Albuquerque Center
Mon 04:08:00 PM 34.9354 -108.7302 248° West  Level FlightAware Approximate
Mon 04:09:37 PM 34.9747 -108.9633 264° West 369 425 36,000  Level Albuquerque Center
Mon 04:11:00 PM 34.9489 -109.1260 259° West  Level FlightAware Approximate
Mon 04:12:00 PM 34.8583 -109.1881 264° West  Level FlightAware Approximate
Mon 04:14:46 PM 34.9372 -109.5928 258° West 351 404 36,000  Level Albuquerque Center
Mon 04:15:00 PM 34.8806 -109.5656 264° West  Level Estimated
Mon 04:15:48 PM 34.9283 -109.7072 265° West 352 405 36,000  Level Albuquerque Center
Mon 04:16:50 PM 34.9206 -109.8431 266° West 357 411 36,000  Level Albuquerque Center
Mon 04:17:52 PM 34.9106 -109.9597 264° West 360 414 36,000  Level Albuquerque Center
Mon 04:18:00 PM 34.8147 -109.9477 259° West  Level FlightAware Approximate
Mon 04:19:00 PM 34.7951 -110.0649 259° West  Level FlightAware Approximate
Mon 04:19:00 PM 34.8975 -110.0920 263° West  Level FlightAware Approximate
Mon 04:20:00 PM 34.7754 -110.1820 258° West  Level FlightAware Approximate
Mon 04:20:57 PM 34.8858 -110.3575 265° West 363 418 36,000  Level Albuquerque Center
Mon 04:23:01 PM 34.8567 -110.5808 261° West 352 405 36,000  Level Albuquerque Center
Mon 04:25:04 PM 34.8236 -110.8336 261° West 353 406 36,000  Level Albuquerque Center
Mon 04:26:00 PM 34.8345 -110.9107 265° West  Level FlightAware Approximate
Mon 04:27:08 PM 34.7936 -111.0656 261° West 350 403 36,000  Level Albuquerque Center
Mon 04:28:10 PM 34.7797 -111.1844 262° West 353 406 36,000  Level Albuquerque Center
Mon 04:30:13 PM 34.7514 -111.4119 261° West 345 397 36,000  Level Albuquerque Center
Mon 04:31:15 PM 34.7331 -111.5506 261° West 347 399 36,000  Level Albuquerque Center
Mon 04:32:17 PM 34.7183 -111.6653 261° West 347 399 36,000  Level Albuquerque Center
Mon 04:33:18 PM 34.7031 -111.7797 261° West 346 398 36,000  Level Albuquerque Center
Mon 04:34:20 PM 34.6878 -111.8942 261° West 345 397 36,000  Level Albuquerque Center
Mon 04:35:22 PM 34.6728 -112.0064 261° West 341 392 36,000  Level Albuquerque Center
Mon 04:36:23 PM 34.6583 -112.1186 261° West 340 391 36,000  Level Albuquerque Center
Mon 04:38:27 PM 34.6253 -112.3633 261° West 335 386 36,000  Level Albuquerque Center
Mon 04:39:29 PM 34.6122 -112.4644 261° West 335 386 36,000  Level Albuquerque Center
Mon 04:40:30 PM 34.5969 -112.5764 261° West 336 387 36,000  Level Albuquerque Center
Mon 04:41:32 PM 34.5811 -112.6900 260° West 339 390 36,000  Level Albuquerque Center
Mon 04:43:36 PM 34.5456 -112.9422 260° West 346 398 36,000  Level Albuquerque Center
Mon 04:44:37 PM 34.5292 -113.0583 260° West 348 400 36,000  Level Albuquerque Center
Mon 04:46:58 PM 34.4894 -113.3353 260° West 347 399 36,000  Level Los Angeles Center
Mon 04:47:43 PM 34.4789 -113.4061 260° West 350 403 36,000  Level Albuquerque Center
Mon 04:48:45 PM 34.4606 -113.5425 261° West 348 400 36,000  Level Albuquerque Center
Mon 04:50:48 PM 34.4278 -113.7561 260° West 331 381 36,000  Level Albuquerque Center
Mon 04:52:52 PM 34.3928 -113.9878 260° West 342 394 36,000  Level Albuquerque Center
Mon 04:53:54 PM 34.3750 -114.1078 260° West 357 411 36,000 -49 Level Albuquerque Center
Mon 04:54:55 PM 34.3539 -114.2419 259° West 344 396 35,900 -537 Descending Albuquerque Center
Mon 04:55:57 PM 34.3378 -114.3536 260° West 340 391 34,900 -957 Descending Albuquerque Center
Mon 04:56:29 PM 34.3294 -114.4097 260° West 336 387 34,400 -574 Descending Los Angeles Center
Mon 04:57:31 PM 34.3119 -114.5192 259° West 334 384 34,000 -192 Descending Los Angeles Center
Mon 04:58:34 PM 34.2953 -114.6308 260° West 338 389 34,000  Level Los Angeles Center
Mon 04:59:36 PM 34.2778 -114.7447 259° West 343 395 34,000  Level Los Angeles Center
Mon 05:01:00 PM 34.2467 -114.9004 256° West  Level FlightAware Approximate
Mon 05:03:44 PM 34.2022 -115.2169 259° West 334 384 34,000  Level Los Angeles Center
Mon 05:04:58 PM 34.1842 -115.3286 259° West 338 389 34,000  Level Los Angeles Center
Mon 05:06:00 PM 34.1622 -115.4437 257° West  Level FlightAware Approximate
Mon 05:07:03 PM 34.1408 -115.5947 257° West 335 386 34,000  Level Los Angeles Center
Mon 05:08:00 PM 34.1137 -115.6841 259° West  Level FlightAware Approximate
Mon 05:08:05 PM 34.1233 -115.7039 259° West 334 384 34,000  Level Los Angeles Center
Mon 05:09:00 PM 34.0951 -115.7960 259° West  Level FlightAware Approximate
Mon 05:09:19 PM 34.1050 -115.8136 259° West 333 383 34,000  Level Los Angeles Center
Mon 05:10:22 PM 34.0864 -115.9458 260° West 334 384 34,000  Level Los Angeles Center
Mon 05:11:24 PM 34.0697 -116.0547 260° West 334 384 34,000  Level Los Angeles Center
Mon 05:13:28 PM 34.0333 -116.2975 260° West 339 390 34,000 -742 Level Los Angeles Center
Mon 05:14:30 PM 34.0169 -116.4075 260° West 337 388 31,700 -2,381 Descending Los Angeles Center
Mon 05:16:00 PM 33.9833 -116.5725 270° West  Level FlightAware Approximate
Mon 05:18:38 PM 33.9742 -116.8725 301° West 334 384 21,700  Level Los Angeles Center
Mon 05:19:33 PM 33.9667 -116.9667 265° West 310 357 19,900 -2,087 Descending Southern California TRACON
Mon 05:20:33 PM 33.9500 -117.0667 259° West 308 354 17,700 -1,700 Descending Southern California TRACON
Mon 05:21:33 PM 33.9333 -117.1667 259° West 281 323 16,500 -1,138 Descending Southern California TRACON
Mon 05:23:00 PM 33.9210 -117.3536 248° West  Level FlightAware Approximate
Mon 05:23:00 PM 33.9289 -117.3300 248° West  Level FlightAware Approximate
Mon 05:23:48 PM 33.9161 -117.3250 248° West 293 337 14,000  Level Los Angeles Center
Mon 05:24:00 PM 33.9510 -117.4519 301° West  Level FlightAware Approximate
Mon 05:24:34 PM 33.9667 -117.3833 316° Northwest 301 346 14,100  Level Southern California TRACON
Mon 05:25:34 PM 33.9833 -117.4667 284° West 273 314 12,900 -1,184 Descending Southern California TRACON
Mon 05:27:06 PM 33.9972 -117.6056 277° West 279 321 11,100 -1,091 Descending Los Angeles Center
Mon 05:28:08 PM 34.0069 -117.6983 277° West 281 323 10,100 -1,213 Descending Los Angeles Center
Mon 05:28:35 PM 34.0000 -117.7500 261° West 277 319 9,300 -1,379 Descending Southern California TRACON
Mon 05:29:35 PM 33.9833 -117.8500 259° West 276 318 8,100 -950 Descending Southern California TRACON
Mon 05:30:35 PM 33.9833 -117.9333 270° West 237 273 7,400 -1,000 Descending Southern California TRACON
Mon 05:31:35 PM 33.9667 -118.0000 253° West 237 273 6,100 -1,143 Descending Southern California TRACON
Mon 05:32:41 PM 33.9667 -118.0833 270° West 229 264 5,000 -1,095 Descending Southern California TRACON
Mon 05:33:41 PM 33.9667 -118.1667 270° West 229 264 3,800 -1,200 Descending Southern California TRACON
Mon 05:34:36 PM 33.9500 -118.2333 253° West 217 250 2,700 -1,148 Descending Southern California TRACON
Mon 05:35:36 PM 33.9500 -118.3000 270° West 187 215 1,600 -950 Descending Southern California TRACON
Mon 05:36:36 PM 33.9333 -118.3500 248° West 136 157 800 -578 Descending Southern California TRACON
Mon 05:37:51 PM 33.9378 -118.3917 277° West 149 171 300 -400 Descending Los Angeles Center
Mon 05:39:00 PM 33.9333 -118.4000 270° West  Level FlightAware Approximate
Mon 05:46:00 PM 33.9425 -118.4081 270° West  Level Estimated

Login

Don't have an account? Register now (free) for customized features, flight alerts, and more!